createdAt,value
2023-03-13T00:01:35.337Z,56.42
2023-03-13T00:04:03.382Z,56.47
2023-03-13T00:06:34.156Z,56.92
2023-03-13T00:09:05.436Z,57.29
2023-03-13T00:11:34.266Z,58.94
2023-03-13T00:14:04.283Z,58.35
2023-03-13T00:16:34.694Z,57.99
2023-03-13T00:19:04.099Z,57.68
2023-03-13T00:21:32.861Z,57.71
2023-03-13T00:24:01.239Z,58.07
2023-03-13T00:26:30.772Z,58.05
2023-03-13T00:28:59.228Z,58.19
2023-03-13T00:31:30.391Z,58.10
2023-03-13T00:34:03.547Z,58.30
2023-03-13T00:36:34.410Z,58.56
2023-03-13T00:39:05.794Z,58.80
2023-03-13T00:41:37.416Z,58.72
2023-03-13T00:44:07.008Z,58.58
2023-03-13T00:46:35.065Z,58.60
2023-03-13T00:49:03.905Z,58.58
2023-03-13T00:51:32.264Z,58.76
2023-03-13T00:54:01.028Z,59.11
2023-03-13T00:56:30.024Z,59.03
2023-03-13T00:58:59.811Z,58.96
2023-03-13T01:01:34.512Z,58.82
2023-03-13T01:04:08.786Z,59.23
2023-03-13T01:06:40.795Z,59.58
2023-03-13T01:09:12.224Z,59.53
2023-03-13T01:11:41.868Z,59.46
2023-03-13T01:14:13.391Z,59.54
2023-03-13T01:16:42.180Z,59.00
2023-03-13T01:19:15.655Z,58.81
2023-03-13T01:21:45.868Z,58.70
2023-03-13T01:24:14.207Z,58.47
2023-03-13T01:26:42.301Z,58.39
2023-03-13T01:29:10.338Z,58.49
2023-03-13T01:31:38.423Z,58.41
2023-03-13T01:34:08.656Z,58.65
2023-03-13T01:36:38.063Z,59.14
2023-03-13T01:39:07.431Z,59.22
2023-03-13T01:41:35.510Z,59.14
2023-03-13T01:44:04.164Z,59.36
2023-03-13T01:46:37.811Z,59.47
2023-03-13T01:49:28.817Z,59.78
2023-03-13T01:52:24.632Z,60.03
2023-03-13T01:55:07.902Z,60.09
2023-03-13T01:57:42.817Z,60.20
2023-03-13T02:00:16.994Z,60.28
2023-03-13T02:02:49.046Z,61.06
2023-03-13T02:05:21.767Z,60.78
2023-03-13T02:07:58.278Z,60.71
2023-03-13T02:10:27.070Z,60.97
2023-03-13T02:13:01.039Z,61.09
2023-03-13T02:15:30.526Z,62.13
2023-03-13T02:17:58.557Z,62.06
2023-03-13T02:20:26.683Z,61.93
2023-03-13T02:23:07.847Z,61.62
2023-03-13T02:25:41.963Z,61.78
2023-03-13T02:28:25.260Z,61.77
2023-03-13T02:30:58.757Z,61.87
2023-03-13T02:33:30.994Z,62.01
2023-03-13T02:36:02.778Z,62.07
2023-03-13T02:38:34.524Z,61.94
2023-03-13T02:41:05.084Z,61.73
2023-03-13T02:43:36.918Z,61.69
2023-03-13T02:46:15.870Z,62.02
2023-03-13T02:48:48.753Z,62.19
2023-03-13T02:51:26.208Z,62.41
2023-03-13T02:53:58.925Z,62.38
2023-03-13T02:56:30.212Z,62.33
2023-03-13T02:58:58.645Z,62.23
2023-03-13T03:02:13.593Z,62.70
2023-03-13T03:04:41.754Z,62.66
2023-03-13T03:07:11.581Z,62.97
2023-03-13T03:09:39.956Z,62.97
2023-03-13T03:12:12.066Z,62.79
2023-03-13T03:14:40.634Z,62.63
2023-03-13T03:17:08.740Z,62.74
2023-03-13T03:19:36.745Z,61.92
2023-03-13T03:22:04.817Z,61.61
2023-03-13T03:24:34.412Z,61.42
2023-03-13T03:27:02.418Z,61.79
2023-03-13T03:29:35.695Z,61.01
2023-03-13T03:32:04.149Z,60.82
2023-03-13T03:34:32.784Z,60.67
2023-03-13T03:37:00.958Z,60.89
2023-03-13T03:39:29.704Z,61.27
2023-03-13T03:41:58.561Z,61.05
2023-03-13T03:44:27.471Z,61.38
2023-03-13T03:46:57.215Z,61.93
2023-03-13T03:49:26.378Z,61.96
2023-03-13T03:51:54.524Z,61.97
2023-03-13T03:54:27.527Z,61.80
2023-03-13T03:56:56.216Z,61.85
2023-03-13T03:59:24.201Z,62.12
2023-03-13T04:01:58.413Z,62.05
2023-03-13T04:04:28.610Z,61.98
2023-03-13T04:07:16.880Z,62.00
2023-03-13T04:09:45.174Z,62.06
2023-03-13T04:12:21.653Z,62.08
2023-03-13T04:14:50.265Z,62.30
2023-03-13T04:17:18.347Z,62.43
2023-03-13T04:19:47.452Z,62.53
2023-03-13T04:22:15.656Z,62.74
2023-03-13T04:24:48.826Z,62.52
2023-03-13T04:27:17.512Z,62.58
2023-03-13T04:29:47.006Z,63.05
2023-03-13T04:32:47.746Z,63.61
2023-03-13T04:35:15.872Z,63.27
2023-03-13T04:38:13.745Z,63.06
2023-03-13T04:41:00.369Z,63.05
2023-03-13T04:43:54.535Z,63.09
2023-03-13T04:46:55.147Z,63.06
2023-03-13T04:49:38.509Z,63.00
2023-03-13T04:52:29.283Z,63.30
2023-03-13T04:55:26.030Z,63.48
2023-03-13T04:58:05.764Z,63.05
2023-03-13T05:00:47.850Z,62.93
2023-03-13T05:03:35.765Z,63.06
2023-03-13T05:06:22.848Z,63.31
2023-03-13T05:09:11.595Z,63.19
2023-03-13T05:11:59.882Z,63.01
2023-03-13T05:14:54.045Z,63.51
2023-03-13T05:17:54.786Z,63.81
2023-03-13T05:20:31.786Z,65.31
2023-03-13T05:23:22.401Z,65.61
2023-03-13T05:26:01.283Z,66.73
2023-03-13T05:28:42.951Z,66.72
2023-03-13T05:31:29.921Z,66.22
2023-03-13T05:33:58.081Z,66.44
2023-03-13T05:36:46.771Z,66.46
2023-03-13T05:39:17.518Z,66.81
2023-03-13T05:41:48.476Z,67.15
2023-03-13T05:44:32.957Z,67.07
2023-03-13T05:47:18.737Z,67.24
2023-03-13T05:49:52.450Z,67.69
2023-03-13T05:52:20.367Z,68.26
2023-03-13T05:55:04.722Z,68.48
2023-03-13T05:57:50.962Z,68.68
2023-03-13T06:00:54.138Z,69.32
2023-03-13T06:03:35.840Z,69.60
2023-03-13T06:06:05.346Z,68.91
2023-03-13T06:08:45.281Z,68.68
2023-03-13T06:11:13.754Z,68.22
2023-03-13T06:13:41.770Z,67.67
2023-03-13T06:16:19.680Z,67.17
2023-03-13T06:18:49.550Z,66.95
2023-03-13T06:21:17.473Z,66.87
2023-03-13T06:23:45.541Z,66.73
2023-03-13T06:26:13.533Z,66.56
2023-03-13T06:28:42.471Z,66.79
2023-03-13T06:31:10.743Z,66.78
2023-03-13T06:33:38.739Z,67.07
2023-03-13T06:36:31.106Z,67.13
2023-03-13T06:39:23.837Z,67.23
2023-03-13T06:42:15.820Z,67.05
2023-03-13T06:45:12.935Z,66.73
2023-03-13T06:48:05.553Z,66.73
2023-03-13T06:50:57.259Z,66.71
2023-03-13T06:53:49.765Z,66.55
2023-03-13T06:56:41.587Z,66.52
2023-03-13T06:59:34.199Z,66.47
2023-03-13T07:02:26.689Z,66.16
2023-03-13T07:05:18.809Z,65.89
2023-03-13T07:08:10.883Z,65.72
2023-03-13T07:11:11.133Z,65.74
2023-03-13T07:14:15.641Z,65.84
2023-03-13T07:17:09.575Z,66.23
2023-03-13T07:20:01.506Z,65.64
2023-03-13T07:22:53.964Z,65.18
2023-03-13T07:25:56.270Z,64.90
2023-03-13T07:28:48.730Z,64.45
2023-03-13T07:31:40.845Z,64.26
2023-03-13T07:34:32.910Z,64.22
2023-03-13T07:37:24.930Z,63.22
2023-03-13T07:40:17.043Z,63.12
2023-03-13T07:43:08.796Z,62.48
2023-03-13T07:46:03.728Z,62.17
2023-03-13T07:48:55.704Z,62.40
2023-03-13T07:51:48.408Z,62.11
2023-03-13T07:54:40.863Z,60.57
2023-03-13T07:57:32.878Z,60.06
2023-03-13T08:00:24.842Z,59.95
2023-03-13T08:03:16.873Z,59.70
2023-03-13T08:06:11.382Z,58.91
2023-03-13T08:09:04.154Z,58.92
2023-03-13T08:11:55.613Z,58.85
2023-03-13T08:14:47.934Z,59.11
2023-03-13T08:17:39.890Z,58.84
2023-03-13T08:20:31.920Z,58.53
2023-03-13T08:23:23.770Z,58.72
2023-03-13T08:26:18.231Z,58.52
2023-03-13T08:29:13.957Z,58.11
2023-03-13T08:32:06.295Z,57.29
2023-03-13T08:34:58.613Z,57.13
2023-03-13T08:37:51.968Z,55.96
2023-03-13T08:40:43.684Z,55.26
2023-03-13T08:43:35.847Z,54.20
2023-03-13T08:46:30.520Z,53.28
2023-03-13T08:49:22.418Z,52.17
2023-03-13T08:52:14.609Z,52.18
2023-03-13T08:55:07.747Z,52.33
2023-03-13T08:57:59.988Z,52.53
2023-03-13T09:00:52.283Z,52.85
2023-03-13T09:03:44.746Z,52.75
2023-03-13T09:06:38.350Z,52.83
2023-03-13T09:09:30.727Z,52.81
2023-03-13T09:12:30.860Z,52.58
2023-03-13T09:15:23.515Z,51.63
2023-03-13T09:18:15.718Z,51.63
2023-03-13T09:21:13.998Z,51.29
2023-03-13T09:24:05.759Z,51.14
2023-03-13T09:27:01.356Z,51.34
2023-03-13T09:29:54.585Z,50.94
2023-03-13T09:32:46.825Z,50.82
2023-03-13T09:35:39.903Z,49.31
2023-03-13T09:38:32.948Z,49.48
2023-03-13T09:41:34.503Z,49.50
2023-03-13T09:44:32.615Z,49.13
2023-03-13T09:47:37.631Z,48.54
2023-03-13T09:50:35.580Z,47.29
2023-03-13T09:53:33.362Z,46.94
2023-03-13T09:56:32.371Z,46.35
2023-03-13T09:59:35.032Z,45.35
2023-03-13T10:02:36.748Z,45.16
2023-03-13T10:05:29.926Z,44.03
2023-03-13T10:08:27.096Z,44.37
2023-03-13T10:11:41.982Z,43.11
2023-03-13T10:14:47.488Z,42.82
2023-03-13T10:17:40.586Z,42.82
2023-03-13T10:20:36.254Z,42.48
2023-03-13T10:23:34.680Z,41.22
2023-03-13T10:26:30.542Z,40.71
2023-03-13T10:29:26.361Z,39.50
2023-03-13T10:32:19.649Z,39.66
2023-03-13T10:35:21.393Z,38.42
2023-03-13T10:38:18.494Z,38.92
2023-03-13T10:41:19.275Z,38.79
2023-03-13T10:44:22.831Z,37.69
2023-03-13T10:47:15.480Z,36.89
2023-03-13T10:50:17.411Z,37.07
2023-03-13T10:53:22.395Z,35.84
2023-03-13T10:56:19.635Z,36.53
2023-03-13T10:59:25.194Z,36.44
2023-03-13T11:02:26.375Z,35.94
2023-03-13T11:05:40.418Z,35.97
2023-03-13T11:08:37.833Z,35.73
2023-03-13T11:11:31.263Z,37.27
2023-03-13T11:14:25.361Z,36.33
2023-03-13T11:17:33.172Z,35.74
2023-03-13T11:20:39.963Z,36.52
2023-03-13T11:23:43.803Z,36.88
2023-03-13T11:26:41.120Z,35.96
2023-03-13T11:29:56.047Z,35.30
2023-03-13T11:32:55.392Z,36.06
2023-03-13T11:35:56.766Z,35.10
2023-03-13T11:38:55.598Z,34.79
2023-03-13T11:42:01.141Z,34.60
2023-03-13T11:45:02.110Z,33.98
2023-03-13T11:48:11.227Z,33.30
2023-03-13T11:51:14.317Z,32.53
2023-03-13T11:54:28.689Z,32.14
2023-03-13T11:57:31.046Z,31.62
2023-03-13T12:00:34.862Z,31.03
2023-03-13T12:04:11.327Z,30.64
2023-03-13T12:07:05.561Z,30.08
2023-03-13T12:10:04.098Z,29.98
2023-03-13T12:13:02.780Z,27.95
2023-03-13T12:16:00.676Z,28.27
2023-03-13T12:18:53.984Z,28.02
2023-03-13T12:21:53.822Z,28.03
2023-03-13T12:24:58.407Z,27.92
2023-03-13T12:28:11.618Z,27.93
2023-03-13T12:31:22.538Z,27.94
2023-03-13T12:34:18.849Z,27.77
2023-03-13T12:37:31.028Z,27.18
2023-03-13T12:41:01.335Z,26.46
2023-03-13T12:44:07.864Z,26.04
2023-03-13T12:47:16.356Z,26.04
2023-03-13T12:50:40.368Z,26.52
2023-03-13T12:53:45.416Z,26.85
2023-03-13T12:56:57.056Z,25.97
2023-03-13T13:00:00.249Z,25.98
2023-03-13T13:03:31.221Z,26.57
2023-03-13T13:06:23.389Z,26.86
2023-03-13T13:09:22.272Z,26.46
2023-03-13T13:12:25.271Z,26.21
2023-03-13T13:15:25.474Z,26.59
2023-03-13T13:18:29.574Z,27.23
2023-03-13T13:21:26.820Z,27.00
2023-03-13T13:24:57.083Z,26.97
2023-03-13T13:27:49.601Z,27.01
2023-03-13T13:30:42.301Z,27.80
2023-03-13T13:33:36.213Z,28.12
2023-03-13T13:36:30.441Z,28.17
2023-03-13T13:39:43.815Z,27.24
2023-03-13T13:42:41.890Z,27.05
2023-03-13T13:45:37.490Z,27.36
2023-03-13T13:48:36.500Z,27.68
2023-03-13T13:51:29.179Z,27.18
2023-03-13T13:54:42.352Z,26.75
2023-03-13T13:57:37.417Z,26.70
2023-03-13T14:00:40.763Z,26.85
2023-03-13T14:03:33.790Z,27.38
2023-03-13T14:06:32.115Z,27.45
2023-03-13T14:09:37.263Z,27.41
2023-03-13T14:12:32.501Z,27.20
2023-03-13T14:15:33.790Z,27.66
2023-03-13T14:18:28.530Z,27.84
2023-03-13T14:21:24.441Z,27.63
2023-03-13T14:24:17.264Z,27.43
2023-03-13T14:27:18.451Z,27.93
2023-03-13T14:30:12.116Z,28.05
2023-03-13T14:33:03.935Z,28.54
2023-03-13T14:35:57.901Z,28.92
2023-03-13T14:38:59.129Z,28.89
2023-03-13T14:41:51.961Z,28.83
2023-03-13T14:44:47.483Z,28.95
2023-03-13T14:47:41.611Z,28.74
2023-03-13T14:50:35.670Z,28.56
2023-03-13T14:53:28.217Z,28.55
2023-03-13T14:56:21.148Z,28.63
2023-03-13T14:59:19.588Z,28.93
2023-03-13T15:02:34.372Z,29.11
2023-03-13T15:05:33.399Z,29.57
2023-03-13T15:08:25.769Z,30.08
2023-03-13T15:11:27.631Z,30.27
2023-03-13T15:14:37.369Z,30.45
2023-03-13T15:17:29.871Z,30.75
2023-03-13T15:20:23.141Z,30.82
2023-03-13T15:23:15.434Z,30.67
2023-03-13T15:26:07.209Z,30.92
2023-03-13T15:28:59.299Z,31.22
2023-03-13T15:31:52.104Z,31.28
2023-03-13T15:34:44.013Z,31.62
2023-03-13T15:37:37.057Z,31.74
2023-03-13T15:40:31.109Z,32.05
2023-03-13T15:43:23.974Z,32.17
2023-03-13T15:46:16.306Z,32.49
2023-03-13T15:49:13.047Z,32.67
2023-03-13T15:52:17.615Z,32.86
2023-03-13T15:55:11.830Z,33.30
2023-03-13T15:58:04.116Z,33.57
2023-03-13T16:00:58.131Z,33.77
2023-03-13T16:03:50.115Z,33.96
2023-03-13T16:06:42.169Z,33.97
2023-03-13T16:09:34.268Z,34.18
2023-03-13T16:12:26.293Z,34.42
2023-03-13T16:15:18.338Z,34.70
2023-03-13T16:18:24.609Z,34.83
2023-03-13T16:21:23.734Z,35.22
2023-03-13T16:24:17.816Z,35.54
2023-03-13T16:27:18.572Z,35.83
2023-03-13T16:30:22.154Z,36.35
2023-03-13T16:33:13.692Z,36.62
2023-03-13T16:36:18.227Z,36.91
2023-03-13T16:39:16.611Z,37.17
2023-03-13T16:42:09.318Z,37.41
2023-03-13T16:45:01.400Z,37.56
2023-03-13T16:47:53.733Z,37.76
2023-03-13T16:50:46.644Z,37.90
2023-03-13T16:53:39.362Z,38.16
2023-03-13T16:56:39.456Z,38.11
2023-03-13T16:59:30.792Z,38.26
2023-03-13T17:02:23.143Z,38.50
2023-03-13T17:05:16.277Z,38.68
2023-03-13T17:08:09.910Z,38.96
2023-03-13T17:11:02.255Z,39.13
2023-03-13T17:13:55.346Z,39.14
2023-03-13T17:16:47.638Z,39.35
2023-03-13T17:19:40.363Z,39.59
2023-03-13T17:22:32.227Z,39.62
2023-03-13T17:25:25.024Z,39.91
2023-03-13T17:28:17.214Z,39.89
2023-03-13T17:31:11.241Z,39.94
2023-03-13T17:34:07.563Z,40.20
2023-03-13T17:37:01.546Z,40.22
2023-03-13T17:39:53.016Z,40.21
2023-03-13T17:42:45.354Z,40.39
2023-03-13T17:45:37.091Z,40.36
2023-03-13T17:48:29.377Z,40.61
2023-03-13T17:51:26.226Z,40.55
2023-03-13T17:54:19.305Z,40.64
2023-03-13T17:57:18.700Z,40.53
2023-03-13T18:00:28.945Z,40.66
2023-03-13T18:03:22.350Z,40.77
2023-03-13T18:06:25.177Z,40.91
2023-03-13T18:09:20.841Z,40.79
2023-03-13T18:12:14.870Z,40.95
2023-03-13T18:15:07.648Z,41.03
2023-03-13T18:17:59.917Z,40.98
2023-03-13T18:20:51.889Z,41.13
2023-03-13T18:23:44.474Z,41.30
2023-03-13T18:26:38.925Z,41.29
2023-03-13T18:29:31.221Z,41.43
2023-03-13T18:32:23.184Z,41.57
2023-03-13T18:35:16.032Z,41.64
2023-03-13T18:38:10.606Z,41.77
2023-03-13T18:41:02.146Z,41.87
2023-03-13T18:43:54.131Z,42.33
2023-03-13T18:46:46.056Z,42.48
2023-03-13T18:49:38.047Z,43.25
2023-03-13T18:52:30.271Z,43.09
2023-03-13T18:55:24.450Z,43.07
2023-03-13T18:58:16.015Z,42.95
2023-03-13T19:01:12.617Z,42.90
2023-03-13T19:04:04.107Z,43.29
2023-03-13T19:06:56.509Z,43.29
2023-03-13T19:09:48.526Z,43.35
2023-03-13T19:12:39.947Z,43.38
2023-03-13T19:15:32.746Z,43.68
2023-03-13T19:18:25.181Z,43.80
2023-03-13T19:21:23.893Z,43.72
2023-03-13T19:24:16.410Z,43.73
2023-03-13T19:27:13.230Z,43.53
2023-03-13T19:30:13.954Z,43.53
2023-03-13T19:33:06.170Z,43.49
2023-03-13T19:35:58.308Z,43.87
2023-03-13T19:38:50.988Z,43.89
2023-03-13T19:41:43.869Z,43.82
2023-03-13T19:44:37.027Z,43.85
2023-03-13T19:47:29.126Z,43.75
2023-03-13T19:50:23.567Z,43.50
2023-03-13T19:53:15.714Z,43.53
2023-03-13T19:56:25.683Z,43.63
2023-03-13T19:59:19.393Z,44.01
2023-03-13T20:02:11.710Z,44.06
2023-03-13T20:05:04.492Z,44.16
2023-03-13T20:07:56.208Z,44.40
2023-03-13T20:10:48.068Z,44.55
2023-03-13T20:13:40.966Z,44.84
2023-03-13T20:16:35.055Z,44.83
2023-03-13T20:19:29.532Z,44.93
2023-03-13T20:22:21.453Z,44.89
2023-03-13T20:25:13.580Z,44.84
2023-03-13T20:28:06.523Z,44.94
2023-03-13T20:30:58.468Z,45.03
2023-03-13T20:33:51.470Z,45.19
2023-03-13T20:36:43.472Z,45.16
2023-03-13T20:39:36.047Z,45.56
2023-03-13T20:42:28.439Z,45.74
2023-03-13T20:45:20.532Z,45.80
2023-03-13T20:48:12.611Z,46.15
2023-03-13T20:51:04.465Z,46.30
2023-03-13T20:53:56.577Z,46.52
2023-03-13T20:56:48.677Z,46.79
2023-03-13T20:59:41.258Z,47.25
2023-03-13T21:02:33.196Z,47.36
2023-03-13T21:05:25.976Z,47.94
2023-03-13T21:08:18.790Z,49.22
2023-03-13T21:11:23.052Z,49.14
2023-03-13T21:14:15.613Z,48.96
2023-03-13T21:17:11.222Z,49.14
2023-03-13T21:20:12.306Z,49.59
2023-03-13T21:23:05.090Z,49.28
2023-03-13T21:25:59.304Z,49.62
2023-03-13T21:28:53.066Z,50.11
2023-03-13T21:31:45.178Z,50.00
2023-03-13T21:34:37.393Z,49.97
2023-03-13T21:37:29.765Z,50.03
2023-03-13T21:40:22.736Z,50.20
2023-03-13T21:43:15.428Z,50.85
2023-03-13T21:46:09.247Z,50.60
2023-03-13T21:49:01.738Z,50.51
2023-03-13T21:51:53.207Z,50.61
2023-03-13T21:54:45.443Z,50.82
2023-03-13T21:57:37.185Z,50.68
2023-03-13T22:00:29.062Z,50.32
2023-03-13T22:03:22.206Z,50.18
2023-03-13T22:06:18.574Z,50.41
2023-03-13T22:09:11.818Z,50.54
2023-03-13T22:12:04.744Z,50.23
2023-03-13T22:14:57.921Z,50.34
2023-03-13T22:17:50.827Z,50.14
2023-03-13T22:20:45.793Z,49.97
2023-03-13T22:23:38.468Z,49.92
2023-03-13T22:26:31.080Z,50.07
2023-03-13T22:29:30.596Z,49.90
2023-03-13T22:32:24.443Z,49.99
2023-03-13T22:35:16.645Z,50.17
2023-03-13T22:38:08.649Z,50.50
2023-03-13T22:41:04.168Z,50.77
2023-03-13T22:43:56.494Z,50.67
2023-03-13T22:46:49.650Z,50.36
2023-03-13T22:49:41.493Z,50.29
2023-03-13T22:52:33.431Z,50.38
2023-03-13T22:55:25.962Z,50.57
2023-03-13T22:58:18.393Z,50.40
2023-03-13T23:01:13.721Z,50.35
2023-03-13T23:04:05.409Z,50.23
2023-03-13T23:06:57.349Z,50.13
2023-03-13T23:09:49.241Z,49.93
2023-03-13T23:12:41.057Z,50.02
2023-03-13T23:15:43.095Z,50.33
2023-03-13T23:18:45.109Z,50.46
2023-03-13T23:21:37.035Z,50.43
2023-03-13T23:24:30.217Z,51.00
2023-03-13T23:27:22.612Z,51.23
2023-03-13T23:30:16.534Z,51.19
2023-03-13T23:33:08.529Z,51.28
2023-03-13T23:36:08.664Z,51.26
2023-03-13T23:39:02.986Z,51.89
2023-03-13T23:41:55.777Z,52.25
2023-03-13T23:44:47.379Z,52.43
2023-03-13T23:47:39.867Z,52.85
2023-03-13T23:50:32.339Z,53.52
2023-03-13T23:53:24.483Z,53.52
2023-03-13T23:56:16.937Z,53.89
2023-03-13T23:59:09.220Z,53.97
